page 6786 of 1003789 registered users

eBook PostsUsers

  1. 0drum01bangle registered @ 2013-04-08 03:51:33, last login @ 2013-04-08 03:51:33
  2. 0pentapro_167 registered @ 2013-04-08 03:51:37, last login @ 2013-04-08 03:51:37
  3. 0cancerwine92 registered @ 2013-04-08 03:52:00, last login @ 2013-04-08 03:52:00
  4. 0boxbass14 registered @ 2013-04-08 03:52:19, last login @ 2013-04-08 03:52:19
  5. 0cuban1botany registered @ 2013-04-08 03:52:50, last login @ 2013-04-08 03:52:50
  6. 0eel15silver registered @ 2013-04-08 03:53:51, last login @ 2013-04-08 03:53:51
  7. 0memorydoubt7 registered @ 2013-04-08 03:54:14, last login @ 2013-04-08 03:54:14
  8. 0cheque78zipper registered @ 2013-04-08 03:57:03, last login @ 2013-04-08 03:57:03
  9. 0kitty96bite registered @ 2013-04-08 03:58:00, last login @ 2013-04-08 03:58:00
  10. 0gasmenu04 registered @ 2013-04-08 03:58:39, last login @ 2013-04-08 03:58:39
  11. 0pigeonship8 registered @ 2013-04-08 03:58:45, last login @ 2013-04-08 03:58:45
  12. 0marchplant3 registered @ 2013-04-08 03:58:53, last login @ 2013-04-08 03:58:53
  13. 0chesthockey87 registered @ 2013-04-08 03:59:43, last login @ 2013-04-08 03:59:43
  14. 0suitreport76 registered @ 2013-04-08 03:59:55, last login @ 2013-04-08 03:59:55
  15. 0actionwave8 registered @ 2013-04-08 03:59:59, last login @ 2013-04-08 03:59:59
  16. 0iron07result registered @ 2013-04-08 04:00:04, last login @ 2013-04-08 04:00:04
  17. 0pump5server registered @ 2013-04-08 04:00:20, last login @ 2013-04-08 04:00:20
  18. 0seedpatio1 registered @ 2013-04-08 04:02:11, last login @ 2013-04-08 04:02:11
  19. 0greasemenu0 registered @ 2013-04-08 04:07:50, last login @ 2013-04-08 04:07:50
  20. 0sauce7roll registered @ 2013-04-08 04:13:20, last login @ 2013-04-08 04:13:20
  21. 0Befaquare registered @ 2013-04-08 04:13:48, last login @ 2013-04-08 04:13:48
  22. 0ganderanimal6 registered @ 2013-04-08 04:13:58, last login @ 2013-04-08 04:13:58
  23. 0close3bronze registered @ 2013-04-08 04:15:23, last login @ 2013-04-08 04:15:23
  24. 0end3twist registered @ 2013-04-08 04:16:32, last login @ 2013-04-08 04:16:32
  25. 0vise71bag registered @ 2013-04-08 04:19:03, last login @ 2013-04-08 04:19:03
  26. 0jelly70bike registered @ 2013-04-08 04:19:21, last login @ 2013-04-08 04:19:21
  27. 0planettwine93 registered @ 2013-04-08 04:19:59, last login @ 2013-04-08 04:19:59
  28. 0mind5cent registered @ 2013-04-08 04:20:44, last login @ 2013-04-08 04:50:33
  29. 0ant0root registered @ 2013-04-08 04:22:05, last login @ 2013-04-08 04:22:05
  30. 0den79cherry registered @ 2013-04-08 04:24:05, last login @ 2013-04-08 04:24:05
  31. 0day65screen registered @ 2013-04-08 04:24:36, last login @ 2013-04-08 04:24:36
  32. 0police05orchid registered @ 2013-04-08 04:26:41, last login @ 2013-04-08 04:26:41
  33. 0health22pump registered @ 2013-04-08 04:31:01, last login @ 2013-04-08 04:31:01
  34. 0inch8canada registered @ 2013-04-08 04:31:01, last login @ 2013-04-08 04:31:01
  35. 0frowncord4 registered @ 2013-04-08 04:33:16, last login @ 2013-04-08 04:33:16
  36. 0breath14chord registered @ 2013-04-08 04:34:05, last login @ 2013-04-08 04:34:05
  37. 0input00knife registered @ 2013-04-08 04:34:09, last login @ 2013-04-08 04:34:09
  38. 0form22cafe registered @ 2013-04-08 04:34:28, last login @ 2013-04-08 04:34:28
  39. 0shame00goal registered @ 2013-04-08 04:34:28, last login @ 2013-04-08 04:55:43
  40. 0tray0cd registered @ 2013-04-08 04:38:12, last login @ 2013-04-08 04:38:12
  41. 0Sweaskinvasia registered @ 2013-04-08 04:41:05, last login @ 2013-04-08 04:41:05
  42. 0brushdibble91 registered @ 2013-04-08 04:42:11, last login @ 2013-04-08 04:42:11
  43. 0braindoxon registered @ 2013-04-08 04:42:55, last login @ 2013-04-08 04:42:55
  44. 0kiss25plough registered @ 2013-04-08 04:43:44, last login @ 2013-04-08 04:43:44
  45. 0dewpalm10 registered @ 2013-04-08 04:43:44, last login @ 2013-04-08 04:43:44
  46. 0ronaldchange6 registered @ 2013-04-08 04:44:16, last login @ 2013-04-08 04:44:16
  47. 0airbus06blood registered @ 2013-04-08 04:45:07, last login @ 2013-04-08 04:45:07
  48. 0tempo09crab registered @ 2013-04-08 04:46:49, last login @ 2013-04-08 04:46:49
  49. 0ocelot36flavor registered @ 2013-04-08 04:55:13, last login @ 2013-04-08 04:55:13
  50. 0mimosakaren6 registered @ 2013-04-08 04:56:27, last login @ 2013-04-08 04:56:27
  51. 0bushvase3 registered @ 2013-04-08 04:57:17, last login @ 2013-04-08 04:57:17
  52. 0footlawyer73 registered @ 2013-04-08 04:59:10, last login @ 2013-04-08 04:59:10
  53. 0beret27person registered @ 2013-04-08 04:59:22, last login @ 2013-04-08 04:59:22
  54. 0tyvekjuice40 registered @ 2013-04-08 04:59:25, last login @ 2013-04-08 04:59:25
  55. 0menu1singer registered @ 2013-04-08 05:00:20, last login @ 2013-04-08 05:00:20
  56. 0bit09mirror registered @ 2013-04-08 05:02:02, last login @ 2013-04-08 05:02:02
  57. 0cactus1week registered @ 2013-04-08 05:07:18, last login @ 2013-04-08 05:07:18
  58. 0cake8appeal registered @ 2013-04-08 05:07:49, last login @ 2013-04-08 05:07:49
  59. 0elejions registered @ 2013-04-08 05:08:26, last login @ 2013-04-08 05:57:17
  60. 0unitturret46 registered @ 2013-04-08 05:12:02, last login @ 2013-04-08 05:12:02
  61. 0pruner6mosque registered @ 2013-04-08 05:12:22, last login @ 2013-04-08 05:12:22
  62. 0bargepolish2 registered @ 2013-04-08 05:13:23, last login @ 2013-04-08 05:13:23
  63. 0range3tail registered @ 2013-04-08 05:14:43, last login @ 2013-04-08 05:14:43
  64. 0josephdog4 registered @ 2013-04-08 05:16:04, last login @ 2013-04-08 05:16:04
  65. 0slavebush34 registered @ 2013-04-08 05:16:44, last login @ 2013-04-08 05:16:44
  66. 0girlmarch86 registered @ 2013-04-08 05:17:04, last login @ 2013-04-08 05:17:04
  67. 0island9crack registered @ 2013-04-08 05:18:18, last login @ 2013-04-08 05:18:18
  68. 0lier0jewel registered @ 2013-04-08 05:21:57, last login @ 2013-04-08 05:21:57
  69. 0russia61candle registered @ 2013-04-08 05:24:30, last login @ 2013-04-08 05:24:30
  70. 0madiam registered @ 2013-04-08 05:25:23, last login @ 2013-04-08 05:25:23
  71. 0graygrowth01 registered @ 2013-04-08 05:26:59, last login @ 2013-04-08 05:26:59
  72. 0typesh22 registered @ 2013-04-08 05:27:46, last login @ 2013-04-08 05:27:46
  73. 0height9grain registered @ 2013-04-08 05:27:46, last login @ 2013-04-08 05:27:46
  74. 0cello22adult registered @ 2013-04-08 05:28:07, last login @ 2013-04-08 05:28:07
  75. 0bay03cymbal registered @ 2013-04-08 05:28:08, last login @ 2013-04-08 05:28:08
  76. 0pie77desire registered @ 2013-04-08 05:28:14, last login @ 2013-04-08 05:28:14
  77. 0brian08cut registered @ 2013-04-08 05:29:02, last login @ 2013-04-08 05:29:02
  78. 0wordwrench3 registered @ 2013-04-08 05:29:14, last login @ 2013-04-08 05:29:14
  79. 0pushattic0 registered @ 2013-04-08 05:29:15, last login @ 2013-04-08 05:29:15
  80. 0tyvekneck52 registered @ 2013-04-08 05:30:39, last login @ 2013-04-08 05:30:39
  81. 0marketmuseum14 registered @ 2013-04-08 05:31:35, last login @ 2013-04-08 05:51:40
  82. 0closetcereal5 registered @ 2013-04-08 05:32:28, last login @ 2013-04-08 05:32:28
  83. 0steam1jet registered @ 2013-04-08 05:35:25, last login @ 2013-04-08 05:35:25
  84. 0asteliaextesy registered @ 2013-04-08 05:39:53, last login @ 2013-04-08 05:39:53
  85. 0column20fact registered @ 2013-04-08 05:40:27, last login @ 2013-04-08 05:40:27
  86. 0shapeengine9 registered @ 2013-04-08 05:41:30, last login @ 2013-04-08 05:41:30
  87. 0liquid3plough registered @ 2013-04-08 05:43:45, last login @ 2013-04-08 05:43:45
  88. 0desirefridge24 registered @ 2013-04-08 05:44:59, last login @ 2013-04-08 05:44:59
  89. 0harbordoctor3 registered @ 2013-04-08 05:49:44, last login @ 2013-04-08 05:49:44
  90. 0zdrewna64 registered @ 2013-04-08 05:51:55, last login @ 2013-04-08 05:51:55
  91. 0spy4belief registered @ 2013-04-08 05:53:56, last login @ 2013-04-08 05:53:56
  92. 0catsupsuede95 registered @ 2013-04-08 05:55:04, last login @ 2013-04-08 05:55:04
  93. 0bait4tailor registered @ 2013-04-08 05:55:49, last login @ 2013-04-08 05:55:49
  94. 0collarforest8 registered @ 2013-04-08 05:58:15, last login @ 2013-04-08 05:58:15
  95. 0hammer89scale registered @ 2013-04-08 05:58:22, last login @ 2013-04-08 05:58:22
  96. 0eaglefur9 registered @ 2013-04-08 06:02:58, last login @ 2013-04-08 06:02:58
  97. 0Occatscoestzqeks registered @ 2013-04-08 06:03:51, last login @ 2013-04-08 06:03:51
  98. 0warriorathlete registered @ 2013-04-08 06:04:09, last login @ 2013-04-08 06:04:09
  99. 0puffinpie2 registered @ 2013-04-08 06:04:25, last login @ 2013-04-08 06:04:25
  100. 0strawmilk3 registered @ 2013-04-08 06:04:38, last login @ 2013-04-08 06:04:38
  101. 0men62soup registered @ 2013-04-08 06:05:00, last login @ 2013-04-08 06:05:00

More...

[6796] [6795] [6794] [6793] [6792] [6791] [6790] [6789] [6788] [6787] [6786] [6785] [6784] [6783] [6782] [6781] [6780] [6779] [6778] [6777] ...[1]
Back to Top